createdAt,value
2022-11-20T00:00:26.108Z,5.09
2022-11-20T00:01:26.077Z,5.11
2022-11-20T00:02:26.092Z,5.19
2022-11-20T00:03:26.048Z,5.12
2022-11-20T00:04:26.037Z,5.09
2022-11-20T00:05:26.019Z,5.18
2022-11-20T00:06:26.037Z,5.11
2022-11-20T00:07:26.049Z,5.15
2022-11-20T00:08:26.012Z,5.12
2022-11-20T00:09:25.993Z,5.14
2022-11-20T00:10:25.992Z,5.16
2022-11-20T00:11:25.988Z,5.12
2022-11-20T00:12:25.946Z,5.16
2022-11-20T00:13:25.965Z,5.18
2022-11-20T00:14:25.952Z,5.18
2022-11-20T00:15:25.931Z,5.18
2022-11-20T00:16:25.936Z,5.22
2022-11-20T00:17:25.916Z,5.12
2022-11-20T00:18:25.892Z,5.19
2022-11-20T00:19:25.880Z,5.19
2022-11-20T00:20:25.866Z,5.12
2022-11-20T00:21:25.869Z,5.25
2022-11-20T00:22:25.869Z,5.29
2022-11-20T00:23:25.852Z,5.30
2022-11-20T00:24:25.825Z,5.24
2022-11-20T00:25:25.830Z,5.27
2022-11-20T00:26:25.814Z,5.32
2022-11-20T00:27:25.821Z,5.29
2022-11-20T00:28:25.796Z,5.22
2022-11-20T00:29:25.792Z,5.15
2022-11-20T00:30:25.796Z,5.27
2022-11-20T00:31:25.767Z,5.25
2022-11-20T00:32:25.756Z,5.29
2022-11-20T00:33:25.755Z,5.24
2022-11-20T00:34:25.750Z,5.25
2022-11-20T00:35:25.729Z,5.25
2022-11-20T00:36:25.764Z,5.34
2022-11-20T00:37:25.697Z,5.14
2022-11-20T00:38:25.706Z,5.22
2022-11-20T00:39:25.697Z,5.19
2022-11-20T00:40:25.675Z,5.15
2022-11-20T00:41:25.691Z,5.16
2022-11-20T00:42:25.633Z,5.15
2022-11-20T00:43:25.666Z,5.19
2022-11-20T00:44:25.641Z,5.14
2022-11-20T00:45:25.625Z,5.14
2022-11-20T00:46:25.632Z,5.11
2022-11-20T00:47:25.581Z,5.09
2022-11-20T00:48:25.604Z,5.18
2022-11-20T00:49:25.580Z,5.18
2022-11-20T00:50:25.563Z,5.21
2022-11-20T00:51:25.573Z,5.15
2022-11-20T00:52:25.554Z,5.14
2022-11-20T00:53:25.555Z,5.04
2022-11-20T00:54:25.519Z,5.09
2022-11-20T00:55:25.513Z,5.12
2022-11-20T00:56:25.495Z,5.09
2022-11-20T00:57:25.485Z,5.21
2022-11-20T00:58:25.509Z,5.11
2022-11-20T00:59:25.487Z,5.09
2022-11-20T01:00:25.449Z,5.04
2022-11-20T01:01:25.657Z,5.00
2022-11-20T01:02:25.456Z,5.09
2022-11-20T01:03:27.164Z,5.18
2022-11-20T01:04:25.411Z,5.18
2022-11-20T01:05:25.441Z,5.18
2022-11-20T01:06:25.405Z,4.86
2022-11-20T01:07:25.446Z,4.97
2022-11-20T01:08:25.394Z,4.83
2022-11-20T01:09:25.363Z,4.91
2022-11-20T01:10:25.371Z,4.83
2022-11-20T01:11:25.350Z,4.82
2022-11-20T01:12:25.331Z,4.82
2022-11-20T01:13:25.871Z,5.00
2022-11-20T01:14:25.349Z,4.96
2022-11-20T01:15:25.308Z,5.12
2022-11-20T01:16:25.313Z,5.14
2022-11-20T01:17:25.296Z,5.15
2022-11-20T01:18:25.270Z,5.22
2022-11-20T01:19:25.522Z,5.25
2022-11-20T01:20:25.292Z,5.22
2022-11-20T01:21:25.238Z,5.24
2022-11-20T01:22:25.250Z,5.24
2022-11-20T01:23:25.233Z,5.18
2022-11-20T01:24:25.232Z,5.15
2022-11-20T01:25:25.226Z,5.14
2022-11-20T01:26:25.225Z,5.06
2022-11-20T01:27:25.181Z,5.00
2022-11-20T01:28:25.183Z,5.00
2022-11-20T01:29:25.396Z,4.93
2022-11-20T01:30:25.145Z,4.94
2022-11-20T01:31:25.149Z,4.97
2022-11-20T01:32:25.126Z,4.89
2022-11-20T01:33:25.120Z,4.88
2022-11-20T01:34:25.113Z,5.04
2022-11-20T01:35:25.118Z,5.01
2022-11-20T01:36:25.119Z,5.14
2022-11-20T01:37:25.097Z,5.15
2022-11-20T01:38:25.065Z,5.07
2022-11-20T01:39:25.423Z,5.16
2022-11-20T01:40:25.065Z,5.15
2022-11-20T01:41:25.059Z,5.29
2022-11-20T01:42:25.028Z,5.21
2022-11-20T01:43:25.032Z,5.21
2022-11-20T01:44:25.021Z,5.25
2022-11-20T01:45:25.019Z,5.24
2022-11-20T01:46:24.991Z,5.27
2022-11-20T01:47:24.987Z,5.32
2022-11-20T01:48:24.994Z,5.25
2022-11-20T01:49:24.966Z,5.14
2022-11-20T01:50:24.966Z,5.06
2022-11-20T01:51:24.935Z,5.09
2022-11-20T01:52:24.931Z,5.04
2022-11-20T01:53:24.924Z,5.19
2022-11-20T01:54:24.923Z,5.18
2022-11-20T01:55:24.887Z,5.33
2022-11-20T01:56:24.882Z,5.30
2022-11-20T01:57:24.889Z,5.37
2022-11-20T01:58:24.864Z,5.36
2022-11-20T01:59:24.876Z,5.40
2022-11-20T02:00:24.871Z,5.30
2022-11-20T02:01:24.862Z,5.25
2022-11-20T02:02:24.827Z,5.29
2022-11-20T02:03:24.829Z,5.30
2022-11-20T02:04:24.805Z,5.25
2022-11-20T02:05:24.834Z,5.33
2022-11-20T02:06:24.813Z,5.32
2022-11-20T02:07:24.830Z,5.30
2022-11-20T02:08:24.761Z,5.33
2022-11-20T02:09:24.746Z,5.32
2022-11-20T02:10:24.753Z,5.34
2022-11-20T02:11:24.742Z,5.24
2022-11-20T02:12:24.723Z,5.24
2022-11-20T02:13:24.710Z,5.29
2022-11-20T02:14:24.711Z,5.32
2022-11-20T02:15:29.997Z,5.33
2022-11-20T02:16:24.689Z,5.30
2022-11-20T02:17:24.698Z,5.39
2022-11-20T02:18:24.684Z,5.41
2022-11-20T02:19:24.673Z,5.44
2022-11-20T02:20:24.674Z,5.48
2022-11-20T02:21:24.627Z,5.37
2022-11-20T02:22:24.648Z,5.43
2022-11-20T02:23:24.631Z,5.40
2022-11-20T02:24:24.620Z,5.34
2022-11-20T02:25:24.600Z,5.25
2022-11-20T02:26:24.607Z,5.25
2022-11-20T02:27:24.581Z,5.24
2022-11-20T02:28:24.560Z,5.25
2022-11-20T02:29:24.568Z,5.18
2022-11-20T02:30:24.577Z,5.11
2022-11-20T02:31:24.538Z,5.16
2022-11-20T02:32:24.516Z,5.12
2022-11-20T02:33:24.529Z,5.18
2022-11-20T02:34:24.533Z,5.06
2022-11-20T02:35:24.480Z,5.12
2022-11-20T02:36:24.473Z,5.04
2022-11-20T02:37:24.466Z,4.94
2022-11-20T02:38:24.498Z,5.01
2022-11-20T02:39:24.442Z,5.04
2022-11-20T02:40:24.435Z,5.01
2022-11-20T02:41:24.415Z,4.97
2022-11-20T02:42:24.423Z,4.93
2022-11-20T02:43:24.414Z,4.97
2022-11-20T02:44:24.423Z,4.86
2022-11-20T02:45:24.401Z,4.91
2022-11-20T02:46:24.390Z,4.86
2022-11-20T02:47:24.378Z,4.96
2022-11-20T02:48:25.336Z,4.93
2022-11-20T02:49:24.589Z,4.98
2022-11-20T02:50:24.356Z,5.03
2022-11-20T02:51:24.344Z,5.07
2022-11-20T02:52:24.305Z,5.19
2022-11-20T02:53:24.328Z,5.18
2022-11-20T02:54:24.318Z,5.25
2022-11-20T02:55:24.279Z,5.30
2022-11-20T02:56:24.285Z,5.25
2022-11-20T02:57:24.280Z,5.25
2022-11-20T02:58:24.270Z,5.37
2022-11-20T02:59:24.381Z,5.34
2022-11-20T03:00:24.223Z,5.36
2022-11-20T03:01:24.249Z,5.37
2022-11-20T03:02:24.234Z,5.37
2022-11-20T03:03:24.220Z,5.33
2022-11-20T03:04:24.203Z,5.36
2022-11-20T03:05:24.206Z,5.37
2022-11-20T03:06:24.173Z,5.41
2022-11-20T03:07:24.210Z,5.24
2022-11-20T03:08:24.145Z,5.16
2022-11-20T03:09:24.253Z,5.18
2022-11-20T03:10:24.124Z,5.16
2022-11-20T03:11:24.113Z,5.18
2022-11-20T03:12:24.105Z,5.18
2022-11-20T03:13:24.103Z,5.15
2022-11-20T03:14:24.085Z,5.15
2022-11-20T03:15:24.082Z,5.21
2022-11-20T03:16:24.063Z,5.22
2022-11-20T03:17:24.067Z,5.32
2022-11-20T03:18:24.048Z,5.30
2022-11-20T03:19:24.201Z,5.34
2022-11-20T03:20:24.026Z,5.21
2022-11-20T03:21:24.017Z,5.19
2022-11-20T03:22:24.030Z,5.21
2022-11-20T03:23:23.993Z,5.12
2022-11-20T03:24:24.020Z,5.14
2022-11-20T03:25:23.989Z,5.04
2022-11-20T03:26:23.961Z,5.01
2022-11-20T03:27:23.972Z,5.18
2022-11-20T03:28:23.938Z,5.07
2022-11-20T03:29:23.953Z,5.12
2022-11-20T03:30:27.606Z,5.09
2022-11-20T03:31:23.934Z,5.06
2022-11-20T03:32:23.902Z,5.16
2022-11-20T03:33:23.902Z,5.15
2022-11-20T03:34:23.890Z,5.06
2022-11-20T03:35:23.876Z,5.16
2022-11-20T03:36:23.873Z,5.14
2022-11-20T03:37:23.856Z,5.18
2022-11-20T03:38:23.845Z,5.32
2022-11-20T03:39:24.175Z,5.22
2022-11-20T03:40:23.828Z,5.24
2022-11-20T03:41:23.831Z,5.27
2022-11-20T03:42:23.800Z,5.25
2022-11-20T03:43:23.799Z,5.34
2022-11-20T03:44:23.789Z,5.36
2022-11-20T03:45:23.796Z,5.40
2022-11-20T03:46:23.776Z,5.43
2022-11-20T03:47:23.751Z,5.36
2022-11-20T03:48:23.759Z,5.41
2022-11-20T03:49:23.933Z,5.39
2022-11-20T03:50:23.735Z,5.40
2022-11-20T03:51:23.700Z,5.40
2022-11-20T03:52:23.702Z,5.36
2022-11-20T03:53:23.680Z,5.29
2022-11-20T03:54:23.693Z,5.39
2022-11-20T03:55:23.673Z,5.33
2022-11-20T03:56:23.648Z,5.37
2022-11-20T03:57:23.640Z,5.33
2022-11-20T03:58:23.627Z,5.40
2022-11-20T03:59:23.822Z,5.29
2022-11-20T04:00:23.628Z,5.29
2022-11-20T04:01:23.710Z,5.22
2022-11-20T04:02:23.593Z,5.15
2022-11-20T04:03:23.619Z,5.16
2022-11-20T04:04:23.598Z,5.15
2022-11-20T04:05:23.578Z,5.07
2022-11-20T04:06:23.573Z,5.09
2022-11-20T04:07:23.609Z,5.16
2022-11-20T04:08:23.555Z,5.07
2022-11-20T04:09:23.868Z,5.11
2022-11-20T04:10:23.532Z,5.18
2022-11-20T04:11:23.527Z,5.16
2022-11-20T04:12:23.518Z,5.15
2022-11-20T04:13:23.485Z,5.21
2022-11-20T04:14:23.478Z,5.27
2022-11-20T04:15:23.453Z,5.16
2022-11-20T04:16:23.463Z,5.22
2022-11-20T04:17:23.434Z,5.15
2022-11-20T04:18:23.422Z,5.16
2022-11-20T04:19:23.604Z,5.16
2022-11-20T04:20:23.407Z,5.21
2022-11-20T04:21:23.399Z,5.24
2022-11-20T04:22:23.421Z,5.15
2022-11-20T04:23:28.419Z,5.29
2022-11-20T04:24:23.390Z,5.16
2022-11-20T04:25:23.353Z,5.29
2022-11-20T04:26:23.368Z,5.25
2022-11-20T04:27:23.319Z,5.21
2022-11-20T04:28:23.318Z,5.18
2022-11-20T04:29:23.704Z,5.27
2022-11-20T04:30:23.318Z,5.30
2022-11-20T04:31:23.313Z,5.32
2022-11-20T04:32:23.289Z,5.33
2022-11-20T04:33:23.290Z,5.29
2022-11-20T04:34:23.273Z,5.30
2022-11-20T04:35:23.298Z,5.25
2022-11-20T04:36:23.239Z,5.16
2022-11-20T04:37:23.253Z,5.15
2022-11-20T04:38:23.233Z,5.06
2022-11-20T04:39:23.493Z,5.04
2022-11-20T04:40:23.211Z,5.11
2022-11-20T04:41:23.206Z,5.14
2022-11-20T04:42:23.177Z,5.16
2022-11-20T04:43:23.172Z,5.14
2022-11-20T04:44:23.155Z,5.06
2022-11-20T04:45:23.160Z,5.16
2022-11-20T04:46:23.175Z,5.18
2022-11-20T04:47:23.115Z,5.06
2022-11-20T04:48:23.111Z,5.07
2022-11-20T04:49:23.369Z,5.07
2022-11-20T04:50:23.093Z,5.11
2022-11-20T04:51:23.089Z,5.06
2022-11-20T04:52:23.095Z,5.11
2022-11-20T04:53:23.096Z,5.15
2022-11-20T04:54:23.053Z,5.19
2022-11-20T04:55:23.051Z,5.16
2022-11-20T04:56:23.041Z,5.16
2022-11-20T04:57:23.018Z,5.25
2022-11-20T04:58:23.019Z,5.29
2022-11-20T04:59:23.409Z,5.36
2022-11-20T05:00:23.001Z,5.37
2022-11-20T05:01:23.094Z,5.30
2022-11-20T05:02:22.991Z,5.25
2022-11-20T05:03:22.971Z,5.16
2022-11-20T05:04:22.996Z,5.29
2022-11-20T05:05:22.947Z,5.30
2022-11-20T05:06:22.947Z,5.34
2022-11-20T05:07:22.966Z,5.39
2022-11-20T05:08:22.903Z,5.39
2022-11-20T05:09:23.221Z,5.41
2022-11-20T05:10:22.892Z,5.36
2022-11-20T05:11:22.900Z,5.41
2022-11-20T05:12:22.903Z,5.51
2022-11-20T05:13:22.870Z,5.52
2022-11-20T05:14:22.841Z,5.48
2022-11-20T05:15:22.843Z,5.50
2022-11-20T05:16:22.840Z,5.47
2022-11-20T05:17:22.840Z,5.55
2022-11-20T05:18:22.811Z,5.57
2022-11-20T05:19:23.116Z,5.58
2022-11-20T05:20:22.788Z,5.52
2022-11-20T05:21:22.789Z,5.59
2022-11-20T05:22:22.792Z,5.58
2022-11-20T05:23:22.774Z,5.66
2022-11-20T05:24:22.736Z,5.69
2022-11-20T05:25:22.729Z,5.67
2022-11-20T05:26:22.756Z,5.47
2022-11-20T05:27:22.730Z,5.54
2022-11-20T05:28:22.723Z,5.55
2022-11-20T05:29:22.927Z,5.58
2022-11-20T05:30:22.689Z,5.57
2022-11-20T05:31:27.144Z,5.59
2022-11-20T05:32:22.681Z,5.55
2022-11-20T05:33:22.673Z,5.59
2022-11-20T05:34:22.641Z,5.55
2022-11-20T05:35:22.666Z,5.58
2022-11-20T05:36:22.624Z,5.65
2022-11-20T05:37:22.617Z,5.66
2022-11-20T05:38:22.635Z,5.58
2022-11-20T05:39:22.902Z,5.72
2022-11-20T05:40:22.609Z,5.69
2022-11-20T05:41:22.604Z,5.65
2022-11-20T05:42:22.561Z,5.70
2022-11-20T05:43:22.573Z,5.73
2022-11-20T05:44:22.573Z,5.59
2022-11-20T05:45:22.550Z,5.76
2022-11-20T05:46:27.913Z,5.76
2022-11-20T05:47:22.527Z,5.72
2022-11-20T05:48:22.500Z,5.69
2022-11-20T05:49:22.713Z,5.76
2022-11-20T05:50:22.480Z,5.69
2022-11-20T05:51:22.502Z,5.73
2022-11-20T05:52:22.480Z,5.69
2022-11-20T05:53:22.472Z,5.75
2022-11-20T05:54:22.453Z,5.72
2022-11-20T05:55:22.435Z,5.75
2022-11-20T05:56:22.447Z,5.75
2022-11-20T05:57:22.421Z,5.70
2022-11-20T05:58:22.400Z,5.73
2022-11-20T05:59:22.694Z,5.72
2022-11-20T06:00:22.404Z,5.73
2022-11-20T06:01:22.374Z,5.76
2022-11-20T06:02:22.473Z,5.77
2022-11-20T06:03:22.374Z,5.77
2022-11-20T06:04:22.353Z,5.75
2022-11-20T06:05:22.342Z,5.75
2022-11-20T06:06:22.357Z,5.75
2022-11-20T06:07:22.364Z,5.79
2022-11-20T06:08:22.321Z,5.73
2022-11-20T06:09:22.630Z,5.79
2022-11-20T06:10:22.285Z,5.75
2022-11-20T06:11:22.295Z,5.75
2022-11-20T06:12:22.285Z,5.70
2022-11-20T06:13:22.267Z,5.72
2022-11-20T06:14:22.892Z,5.72
2022-11-20T06:15:22.228Z,5.77
2022-11-20T06:16:22.218Z,5.75
2022-11-20T06:17:22.236Z,5.76
2022-11-20T06:18:22.217Z,5.79
2022-11-20T06:19:22.511Z,5.72
2022-11-20T06:20:22.186Z,5.76
2022-11-20T06:21:22.191Z,5.80
2022-11-20T06:22:22.170Z,5.85
2022-11-20T06:23:22.166Z,5.91
2022-11-20T06:24:22.150Z,5.82
2022-11-20T06:25:22.170Z,5.87
2022-11-20T06:26:22.117Z,5.91
2022-11-20T06:27:22.110Z,5.94
2022-11-20T06:28:22.106Z,5.94
2022-11-20T06:29:22.327Z,5.97
2022-11-20T06:30:22.100Z,5.95
2022-11-20T06:31:22.093Z,5.87
2022-11-20T06:32:22.071Z,5.90
2022-11-20T06:33:22.066Z,5.94
2022-11-20T06:34:22.036Z,5.85
2022-11-20T06:35:22.044Z,6.03
2022-11-20T06:36:22.070Z,5.85
2022-11-20T06:37:22.045Z,5.85
2022-11-20T06:38:22.033Z,6.00
2022-11-20T06:39:22.406Z,5.85
2022-11-20T06:40:21.985Z,5.91
2022-11-20T06:41:22.008Z,5.85
2022-11-20T06:42:21.961Z,5.85
2022-11-20T06:43:21.961Z,5.97
2022-11-20T06:44:21.967Z,5.93
2022-11-20T06:45:21.961Z,5.98
2022-11-20T06:46:21.950Z,5.97
2022-11-20T06:47:21.912Z,5.98
2022-11-20T06:48:21.936Z,6.02
2022-11-20T06:49:22.111Z,5.97
2022-11-20T06:50:21.901Z,5.94
2022-11-20T06:51:21.890Z,5.93
2022-11-20T06:52:21.887Z,5.90
2022-11-20T06:53:21.864Z,5.95
2022-11-20T06:54:21.866Z,5.85
2022-11-20T06:55:21.870Z,5.97
2022-11-20T06:56:21.826Z,6.06
2022-11-20T06:57:21.832Z,5.98
2022-11-20T06:58:21.797Z,6.03
2022-11-20T06:59:22.092Z,6.00
2022-11-20T07:00:21.797Z,6.02
2022-11-20T07:01:21.845Z,6.00
2022-11-20T07:02:21.792Z,5.97
2022-11-20T07:03:21.781Z,5.97
2022-11-20T07:04:21.740Z,5.87
2022-11-20T07:05:21.741Z,5.77
2022-11-20T07:06:21.745Z,5.82
2022-11-20T07:07:21.759Z,5.79
2022-11-20T07:08:21.704Z,5.88
2022-11-20T07:09:21.696Z,5.79
2022-11-20T07:10:21.714Z,5.80
2022-11-20T07:11:21.676Z,5.82
2022-11-20T07:12:21.671Z,5.77
2022-11-20T07:13:21.675Z,5.65
2022-11-20T07:14:21.646Z,5.61
2022-11-20T07:15:21.635Z,5.57
2022-11-20T07:16:21.646Z,5.52
2022-11-20T07:17:21.610Z,5.58
2022-11-20T07:18:21.609Z,5.52
2022-11-20T07:19:21.888Z,5.34
2022-11-20T07:20:21.590Z,5.25
2022-11-20T07:21:21.597Z,5.22
2022-11-20T07:22:21.574Z,5.34
2022-11-20T07:23:21.576Z,5.33
2022-11-20T07:24:21.572Z,5.47
2022-11-20T07:25:21.563Z,5.51
2022-11-20T07:26:21.541Z,5.57
2022-11-20T07:27:21.548Z,5.44
2022-11-20T07:28:21.510Z,5.54
2022-11-20T07:29:21.752Z,5.52
2022-11-20T07:30:21.529Z,5.57
2022-11-20T07:31:21.495Z,5.61
2022-11-20T07:32:21.502Z,5.54
2022-11-20T07:33:21.489Z,5.54
2022-11-20T07:34:21.459Z,5.50
2022-11-20T07:35:21.448Z,5.51
2022-11-20T07:36:21.454Z,5.50
2022-11-20T07:37:21.443Z,5.44
2022-11-20T07:38:21.426Z,5.32
2022-11-20T07:39:21.754Z,5.36
2022-11-20T07:40:21.423Z,5.33
2022-11-20T07:41:21.435Z,5.33
2022-11-20T07:42:21.413Z,5.36
2022-11-20T07:43:21.373Z,5.40
2022-11-20T07:44:21.350Z,5.39
2022-11-20T07:45:21.386Z,5.36
2022-11-20T07:46:21.347Z,5.25
2022-11-20T07:47:21.333Z,5.21
2022-11-20T07:48:21.337Z,5.15
2022-11-20T07:49:21.789Z,5.22
2022-11-20T07:50:21.312Z,5.15
2022-11-20T07:51:21.330Z,5.24
2022-11-20T07:52:21.299Z,5.24
2022-11-20T07:53:21.264Z,5.29
2022-11-20T07:54:21.287Z,5.29
2022-11-20T07:55:21.298Z,5.32
2022-11-20T07:56:21.267Z,5.40
2022-11-20T07:57:25.542Z,5.32
2022-11-20T07:58:21.216Z,5.33
2022-11-20T07:59:21.527Z,5.36
2022-11-20T08:00:21.214Z,5.36
2022-11-20T08:01:21.293Z,5.41
2022-11-20T08:02:21.220Z,5.40
2022-11-20T08:03:24.913Z,5.50
2022-11-20T08:04:21.164Z,5.40
2022-11-20T08:05:21.138Z,5.43
2022-11-20T08:06:21.143Z,5.54
2022-11-20T08:07:21.178Z,5.51
2022-11-20T08:08:21.114Z,5.51
2022-11-20T08:09:21.318Z,5.51
2022-11-20T08:10:21.112Z,5.57
2022-11-20T08:11:21.106Z,5.54
2022-11-20T08:12:21.095Z,5.50
2022-11-20T08:13:21.070Z,5.48
2022-11-20T08:14:21.049Z,5.48
2022-11-20T08:15:21.061Z,5.52
2022-11-20T08:16:21.050Z,5.50
2022-11-20T08:17:21.043Z,5.54
2022-11-20T08:18:31.341Z,5.65
2022-11-20T08:19:21.357Z,5.55
2022-11-20T08:20:21.009Z,5.55
2022-11-20T08:21:20.988Z,5.54
2022-11-20T08:22:20.999Z,5.69
2022-11-20T08:23:21.055Z,5.65
2022-11-20T08:24:20.975Z,5.57
2022-11-20T08:25:20.974Z,5.65
2022-11-20T08:26:20.983Z,5.65
2022-11-20T08:27:20.949Z,5.73
2022-11-20T08:28:22.245Z,5.77
2022-11-20T08:29:21.225Z,5.72
2022-11-20T08:30:20.920Z,5.75
2022-11-20T08:31:20.893Z,5.85
2022-11-20T08:32:20.864Z,5.82
2022-11-20T08:33:20.860Z,5.84
2022-11-20T08:34:20.862Z,5.90
2022-11-20T08:35:20.846Z,5.95
2022-11-20T08:36:20.828Z,5.98
2022-11-20T08:37:20.835Z,6.08
2022-11-20T08:38:20.854Z,6.06
2022-11-20T08:39:21.151Z,6.13
2022-11-20T08:40:20.801Z,5.97
2022-11-20T08:41:20.803Z,5.94
2022-11-20T08:42:20.780Z,6.00
2022-11-20T08:43:20.789Z,5.90
2022-11-20T08:44:20.750Z,5.90
2022-11-20T08:45:20.762Z,5.94
2022-11-20T08:46:20.781Z,5.97
2022-11-20T08:47:20.734Z,6.00
2022-11-20T08:48:20.739Z,6.13
2022-11-20T08:49:21.016Z,6.08
2022-11-20T08:50:20.701Z,6.11
2022-11-20T08:51:20.723Z,6.09
2022-11-20T08:52:20.685Z,6.08
2022-11-20T08:53:20.743Z,6.02
2022-11-20T08:54:20.672Z,6.12
2022-11-20T08:55:20.686Z,6.18
2022-11-20T08:56:20.679Z,6.16
2022-11-20T08:57:20.672Z,6.05
2022-11-20T08:58:20.664Z,6.11
2022-11-20T08:59:43.413Z,6.06
2022-11-20T09:00:20.627Z,6.09
2022-11-20T09:01:20.622Z,6.06
2022-11-20T09:02:20.588Z,6.18
2022-11-20T09:03:20.617Z,6.19
2022-11-20T09:04:20.582Z,6.18
2022-11-20T09:05:20.600Z,6.19
2022-11-20T09:06:20.566Z,6.21
2022-11-20T09:07:20.595Z,6.28
2022-11-20T09:08:20.549Z,6.27
2022-11-20T09:09:21.020Z,6.30
2022-11-20T09:10:28.067Z,6.25
2022-11-20T09:11:20.550Z,6.19
2022-11-20T09:12:20.505Z,6.30
2022-11-20T09:13:20.503Z,6.25
2022-11-20T09:14:20.477Z,6.25
2022-11-20T09:15:20.505Z,6.32
2022-11-20T09:16:20.486Z,6.28
2022-11-20T09:17:20.483Z,6.28
2022-11-20T09:18:20.449Z,6.31
2022-11-20T09:19:35.008Z,6.35
2022-11-20T09:20:20.417Z,6.35
2022-11-20T09:21:20.522Z,6.30
2022-11-20T09:22:20.412Z,6.19
2022-11-20T09:23:20.393Z,6.27
2022-11-20T09:24:20.417Z,6.28
2022-11-20T09:25:20.385Z,6.19
2022-11-20T09:26:20.371Z,6.37
2022-11-20T09:27:20.382Z,6.35
2022-11-20T09:28:20.370Z,6.27
2022-11-20T09:29:20.716Z,6.34
2022-11-20T09:30:20.391Z,6.40
2022-11-20T09:31:20.313Z,6.43
2022-11-20T09:32:20.337Z,6.42
2022-11-20T09:33:20.329Z,6.38
2022-11-20T09:34:20.338Z,6.30
2022-11-20T09:35:20.293Z,6.40
2022-11-20T09:36:20.305Z,6.38
2022-11-20T09:37:20.267Z,6.37
2022-11-20T09:38:20.253Z,6.16
2022-11-20T09:39:20.419Z,6.25
2022-11-20T09:40:20.326Z,6.24
2022-11-20T09:41:20.276Z,6.25
2022-11-20T09:42:20.261Z,6.35
2022-11-20T09:43:20.204Z,6.24
2022-11-20T09:44:20.200Z,6.30
2022-11-20T09:45:20.201Z,6.38
2022-11-20T09:46:20.209Z,6.35
2022-11-20T09:47:20.178Z,6.34
2022-11-20T09:48:20.167Z,6.34
2022-11-20T09:49:20.445Z,6.37
2022-11-20T09:50:20.167Z,6.40
2022-11-20T09:51:20.136Z,6.38
2022-11-20T09:52:20.129Z,6.43
2022-11-20T09:53:20.116Z,6.43
2022-11-20T09:54:20.169Z,6.38
2022-11-20T09:55:20.118Z,6.40
2022-11-20T09:56:22.487Z,6.35
2022-11-20T09:57:20.090Z,6.52
2022-11-20T09:58:20.092Z,6.56
2022-11-20T09:59:20.320Z,6.65
2022-11-20T10:00:20.085Z,6.70
2022-11-20T10:01:20.509Z,6.82
2022-11-20T10:02:20.086Z,6.82
2022-11-20T10:03:20.031Z,6.82
2022-11-20T10:04:20.234Z,6.81
2022-11-20T10:05:20.436Z,6.75
2022-11-20T10:06:20.038Z,6.89
2022-11-20T10:07:35.508Z,6.86
2022-11-20T10:08:20.055Z,7.01
2022-11-20T10:09:20.330Z,7.10
2022-11-20T10:10:20.166Z,7.21
2022-11-20T10:11:20.134Z,7.22
2022-11-20T10:12:19.989Z,7.19
2022-11-20T10:13:19.962Z,7.19
2022-11-20T10:14:19.964Z,7.31
2022-11-20T10:15:19.985Z,7.33
2022-11-20T10:16:19.925Z,7.44
2022-11-20T10:17:19.996Z,7.44
2022-11-20T10:18:19.947Z,7.47
2022-11-20T10:19:20.159Z,7.36
2022-11-20T10:20:19.938Z,7.33
2022-11-20T10:21:19.952Z,7.31
2022-11-20T10:22:19.908Z,7.43
2022-11-20T10:23:25.394Z,7.39
2022-11-20T10:24:19.855Z,7.31
2022-11-20T10:25:19.881Z,7.28
2022-11-20T10:26:19.852Z,7.19
2022-11-20T10:27:19.876Z,7.19
2022-11-20T10:28:19.834Z,7.13
2022-11-20T10:29:19.854Z,7.08
2022-11-20T10:30:19.810Z,7.13
2022-11-20T10:31:19.943Z,7.15
2022-11-20T10:32:19.822Z,7.18
2022-11-20T10:33:19.817Z,7.22
2022-11-20T10:34:22.882Z,7.16
2022-11-20T10:35:19.805Z,7.16
2022-11-20T10:36:19.809Z,7.26
2022-11-20T10:37:19.772Z,7.21
2022-11-20T10:38:19.766Z,7.01
2022-11-20T10:39:20.049Z,7.04
2022-11-20T10:40:19.758Z,7.04
2022-11-20T10:41:19.806Z,6.96
2022-11-20T10:42:19.716Z,7.01
2022-11-20T10:43:19.756Z,6.93
2022-11-20T10:44:20.031Z,6.97
2022-11-20T10:45:19.729Z,7.04
2022-11-20T10:46:19.685Z,6.89
2022-11-20T10:47:19.783Z,6.99
2022-11-20T10:48:19.671Z,6.85
2022-11-20T10:49:19.933Z,6.86
2022-11-20T10:50:22.555Z,6.82
2022-11-20T10:51:19.721Z,6.89
2022-11-20T10:52:19.660Z,6.86
2022-11-20T10:53:19.678Z,6.97
2022-11-20T10:54:19.631Z,7.00
2022-11-20T10:55:19.628Z,7.03
2022-11-20T10:56:19.627Z,7.01
2022-11-20T10:57:19.593Z,7.11
2022-11-20T10:58:19.578Z,7.08
2022-11-20T10:59:20.065Z,7.03
2022-11-20T11:00:19.600Z,6.93
2022-11-20T11:01:19.682Z,6.93
2022-11-20T11:02:19.537Z,6.88
2022-11-20T11:03:19.536Z,6.85
2022-11-20T11:04:19.578Z,6.93
2022-11-20T11:05:19.519Z,7.01
2022-11-20T11:06:19.508Z,7.04
2022-11-20T11:07:19.534Z,7.01
2022-11-20T11:08:19.524Z,7.01
2022-11-20T11:09:20.015Z,7.04
2022-11-20T11:10:19.467Z,7.04
2022-11-20T11:11:19.529Z,7.07
2022-11-20T11:12:19.460Z,7.04
2022-11-20T11:13:19.453Z,7.04
2022-11-20T11:14:19.468Z,6.97
2022-11-20T11:15:19.428Z,7.04
2022-11-20T11:16:19.470Z,7.04
2022-11-20T11:17:19.414Z,7.00
2022-11-20T11:18:19.399Z,7.01
2022-11-20T11:19:19.391Z,7.08
2022-11-20T11:20:19.393Z,7.03
2022-11-20T11:21:19.462Z,7.10
2022-11-20T11:22:19.391Z,7.07
2022-11-20T11:23:19.350Z,7.01
2022-11-20T11:24:41.195Z,7.03
2022-11-20T11:25:19.357Z,7.00
2022-11-20T11:26:19.377Z,7.01
2022-11-20T11:27:19.393Z,6.92
2022-11-20T11:28:19.344Z,7.00
2022-11-20T11:29:19.350Z,7.07
2022-11-20T11:30:19.298Z,6.97
2022-11-20T11:31:19.291Z,6.86
2022-11-20T11:32:19.275Z,6.88
2022-11-20T11:33:19.294Z,6.83
2022-11-20T11:34:19.284Z,6.81
2022-11-20T11:35:19.253Z,6.71
2022-11-20T11:36:19.290Z,6.83
2022-11-20T11:37:19.236Z,6.85
2022-11-20T11:38:19.269Z,6.97
2022-11-20T11:39:19.262Z,7.07
2022-11-20T11:40:26.421Z,7.08
2022-11-20T11:41:19.216Z,7.08
2022-11-20T11:42:19.189Z,7.24
2022-11-20T11:43:19.183Z,7.21
2022-11-20T11:44:19.187Z,7.33
2022-11-20T11:45:19.166Z,7.31
2022-11-20T11:46:19.161Z,7.40
2022-11-20T11:47:19.171Z,7.50
2022-11-20T11:48:19.175Z,7.47
2022-11-20T11:49:19.157Z,7.57
2022-11-20T11:50:19.133Z,7.55
2022-11-20T11:51:19.166Z,7.60
2022-11-20T11:52:19.131Z,7.64
2022-11-20T11:53:19.109Z,7.62
2022-11-20T11:54:19.201Z,7.62
2022-11-20T11:55:19.081Z,7.54
2022-11-20T11:56:19.093Z,7.57
2022-11-20T11:57:19.082Z,7.52
2022-11-20T11:58:19.067Z,7.57
2022-11-20T11:59:19.085Z,7.49
2022-11-20T12:00:19.051Z,7.44
2022-11-20T12:01:19.035Z,7.34
2022-11-20T12:02:19.038Z,7.31
2022-11-20T12:03:19.029Z,7.33
2022-11-20T12:04:19.022Z,7.43
2022-11-20T12:05:19.024Z,7.43
2022-11-20T12:06:18.991Z,7.46
2022-11-20T12:07:44.701Z,7.49
2022-11-20T12:08:19.047Z,7.54
2022-11-20T12:09:18.970Z,7.58
2022-11-20T12:10:18.962Z,7.55
2022-11-20T12:11:18.969Z,7.55
2022-11-20T12:12:18.975Z,7.74
2022-11-20T12:13:18.936Z,7.69
2022-11-20T12:14:18.926Z,7.77
2022-11-20T12:15:18.925Z,7.73
2022-11-20T12:16:18.919Z,7.76
2022-11-20T12:17:18.910Z,7.71
2022-11-20T12:18:18.914Z,7.69
2022-11-20T12:19:18.918Z,7.81
2022-11-20T12:20:18.886Z,7.92
2022-11-20T12:21:18.873Z,7.91
2022-11-20T12:22:18.848Z,7.92
2022-11-20T12:23:18.859Z,7.86
2022-11-20T12:24:18.839Z,7.88
2022-11-20T12:25:18.837Z,8.01
2022-11-20T12:26:18.850Z,8.06
2022-11-20T12:27:18.821Z,7.99
2022-11-20T12:28:18.826Z,7.88
2022-11-20T12:29:18.793Z,7.88
2022-11-20T12:30:18.807Z,7.96
2022-11-20T12:31:18.787Z,7.83
2022-11-20T12:32:18.801Z,7.71
2022-11-20T12:33:18.766Z,7.74
2022-11-20T12:34:18.783Z,7.73
2022-11-20T12:35:18.780Z,7.69
2022-11-20T12:36:18.739Z,7.78
2022-11-20T12:37:18.770Z,7.78
2022-11-20T12:38:18.752Z,7.80
2022-11-20T12:39:18.716Z,7.84
2022-11-20T12:40:18.710Z,7.94
2022-11-20T12:41:18.699Z,7.99
2022-11-20T12:42:18.698Z,8.06
2022-11-20T12:43:18.694Z,8.05
2022-11-20T12:44:18.673Z,8.06
2022-11-20T12:45:18.660Z,8.10
2022-11-20T12:46:18.709Z,8.13
2022-11-20T12:47:18.645Z,8.06
2022-11-20T12:48:18.692Z,8.10
2022-11-20T12:49:18.677Z,8.23
2022-11-20T12:50:18.624Z,8.17
2022-11-20T12:51:18.646Z,8.20
2022-11-20T12:52:18.616Z,8.21
2022-11-20T12:53:18.597Z,8.23
2022-11-20T12:54:18.624Z,8.29
2022-11-20T12:55:18.611Z,8.28
2022-11-20T12:56:18.579Z,8.29
2022-11-20T12:57:18.575Z,8.34
2022-11-20T12:58:18.605Z,8.38
2022-11-20T12:59:18.561Z,8.42
2022-11-20T13:00:18.544Z,8.34
2022-11-20T13:01:18.560Z,8.42
2022-11-20T13:02:18.549Z,8.31
2022-11-20T13:03:18.551Z,8.32
2022-11-20T13:04:18.519Z,8.35
2022-11-20T13:05:18.510Z,8.37
2022-11-20T13:06:18.532Z,8.37
2022-11-20T13:07:18.570Z,8.37
2022-11-20T13:08:18.507Z,8.34
2022-11-20T13:09:18.523Z,8.37
2022-11-20T13:10:18.495Z,8.37
2022-11-20T13:11:18.457Z,8.46
2022-11-20T13:12:18.451Z,8.37
2022-11-20T13:13:18.459Z,8.34
2022-11-20T13:14:18.432Z,8.28
2022-11-20T13:15:18.442Z,8.28
2022-11-20T13:16:18.453Z,8.37
2022-11-20T13:17:18.437Z,8.31
2022-11-20T13:18:18.415Z,8.26